Time;durP1;ratioP1;P1;durP2;ratioP2;P2;SDS_P1;SDS_P2;PMS_P1;PMS_P2;Temp;Humidity;BMP_temperature;BMP_pressure;BME280_temperature;BME280_humidity;BME280_pressure;Samples;Min_cycle;Max_cycle;Signal;HPM_P1;HPM_P2
2022/01/06 00:00:58;;;;;;;1.43;0.70;;;2.90;99.90;;;;;;5031454;28;20300;-46
2022/01/06 00:03:26;;;;;;;5.53;0.97;;;2.90;99.90;;;;;;5059854;28;20289;-46
2022/01/06 00:05:55;;;;;;;4.00;1.00;;;2.80;99.90;;;;;;5039715;28;20594;-45
2022/01/06 00:08:22;;;;;;;2.10;1.03;;;2.90;99.90;;;;;;5042284;28;20213;-46
2022/01/06 00:10:50;;;;;;;1.30;0.87;;;2.80;99.90;;;;;;5055511;28;20226;-45
2022/01/06 00:13:21;;;;;;;2.20;0.83;;;2.80;99.90;;;;;;5046675;28;20289;-46
2022/01/06 00:16:04;;;;;;;2.47;0.90;;;2.80;99.90;;;;;;5056282;28;20723;-46
2022/01/06 00:23:03;;;;;;;2.53;1.13;;;2.80;99.90;;;;;;5046163;28;20238;-46
2022/01/06 00:24:10;;;;;;;1.67;0.60;;;2.70;99.90;;;;;;5039816;28;20215;-46
2022/01/06 00:26:37;;;;;;;2.47;0.50;;;2.70;99.90;;;;;;5059442;28;20219;-46
2022/01/06 00:29:05;;;;;;;3.50;0.67;;;2.60;99.90;;;;;;5033760;28;20979;-46
2022/01/06 00:31:32;;;;;;;6.50;0.90;;;2.60;99.90;;;;;;5047331;28;22053;-46
2022/01/06 00:33:59;;;;;;;2.13;0.70;;;2.70;99.90;;;;;;5056602;28;20206;-46
2022/01/06 00:36:29;;;;;;;3.47;0.97;;;2.70;99.90;;;;;;5060026;28;20227;-46
2022/01/06 00:38:56;;;;;;;3.30;0.80;;;2.60;99.90;;;;;;5028392;28;20344;-46
2022/01/06 00:41:23;;;;;;;7.97;1.30;;;2.60;99.90;;;;;;5052062;28;20229;-46
2022/01/06 00:43:50;;;;;;;0.63;0.60;;;2.40;99.90;;;;;;5048275;28;20574;-46
2022/01/06 00:46:17;;;;;;;3.67;0.90;;;2.40;99.90;;;;;;5040989;28;20273;-46
2022/01/06 00:48:44;;;;;;;3.03;1.07;;;2.40;99.90;;;;;;5059298;28;20964;-46
2022/01/06 00:51:11;;;;;;;4.40;1.00;;;2.30;99.90;;;;;;5056716;28;20204;-47
2022/01/06 00:53:39;;;;;;;0.97;0.70;;;2.30;99.90;;;;;;5044703;28;20241;-46
2022/01/06 00:56:06;;;;;;;2.70;0.60;;;2.30;99.90;;;;;;5041149;28;20217;-46
2022/01/06 00:58:33;;;;;;;3.33;0.93;;;2.20;99.90;;;;;;5032421;28;20235;-46
2022/01/06 01:01:00;;;;;;;0.97;0.87;;;2.10;99.90;;;;;;5044456;28;20211;-47
2022/01/06 01:03:27;;;;;;;2.90;0.93;;;2.10;99.90;;;;;;5049848;28;20213;-46
2022/01/06 01:05:57;;;;;;;10.13;1.40;;;2.10;99.90;;;;;;5059296;28;20229;-46
2022/01/06 01:08:25;;;;;;;5.73;1.03;;;2.20;99.90;;;;;;5043109;28;20210;-46
2022/01/06 01:10:54;;;;;;;2.63;1.00;;;2.20;99.90;;;;;;5039595;28;20222;-46
2022/01/06 01:13:28;;;;;;;2.53;0.73;;;2.20;99.90;;;;;;5058498;28;20203;-46
2022/01/06 01:16:00;;;;;;;2.20;0.77;;;2.20;99.90;;;;;;5034940;28;20229;-47
2022/01/06 01:18:26;;;;;;;3.83;0.73;;;2.10;99.90;;;;;;5035910;28;20231;-46
2022/01/06 01:20:54;;;;;;;4.13;0.80;;;2.20;99.90;;;;;;5057391;28;20200;-46
2022/01/06 01:23:22;;;;;;;2.93;0.70;;;2.10;99.90;;;;;;5051873;28;20973;-38
2022/01/06 01:25:50;;;;;;;1.63;0.57;;;2.10;99.90;;;;;;5028761;28;20867;-38
2022/01/06 01:28:19;;;;;;;7.23;1.00;;;2.10;99.90;;;;;;5052237;28;20203;-38
2022/01/06 01:31:04;;;;;;;6.27;0.97;;;2.10;99.90;;;;;;5040602;28;20200;-38
2022/01/06 01:33:31;;;;;;;1.60;0.97;;;2.10;99.90;;;;;;5058657;28;20214;-38
2022/01/06 01:35:58;;;;;;;2.97;0.77;;;2.00;99.90;;;;;;5048642;28;20227;-38
2022/01/06 01:38:25;;;;;;;1.87;0.90;;;2.00;99.90;;;;;;5061652;28;20217;-38
2022/01/06 01:40:52;;;;;;;1.00;0.67;;;2.10;99.90;;;;;;5025885;28;20200;-38
2022/01/06 01:43:20;;;;;;;2.07;0.70;;;2.00;99.90;;;;;;5057253;28;20207;-41
2022/01/06 01:45:54;;;;;;;6.10;1.30;;;2.00;99.90;;;;;;5048192;28;20942;-41
2022/01/06 01:48:27;;;;;;;2.23;0.97;;;2.00;99.90;;;;;;5058362;28;20203;-41
2022/01/06 01:50:54;;;;;;;2.50;1.13;;;2.00;99.90;;;;;;5048592;28;20290;-41
2022/01/06 01:53:21;;;;;;;2.40;0.63;;;2.00;99.90;;;;;;5054497;28;21042;-41
2022/01/06 01:55:48;;;;;;;2.93;0.80;;;2.00;99.90;;;;;;5042795;28;20220;-41
2022/01/06 01:58:14;;;;;;;3.33;0.90;;;1.90;99.90;;;;;;5037939;28;20209;-41
2022/01/06 02:00:43;;;;;;;2.73;0.80;;;1.70;99.90;;;;;;5053175;28;20204;-41
2022/01/06 02:03:10;;;;;;;5.43;0.93;;;1.70;99.90;;;;;;5040353;28;20551;-41
2022/01/06 02:05:37;;;;;;;1.97;0.77;;;1.70;99.90;;;;;;5049921;28;20870;-42
2022/01/06 02:08:05;;;;;;;3.63;0.90;;;1.70;99.90;;;;;;5048761;28;20214;-41
2022/01/06 02:10:33;;;;;;;4.67;0.90;;;1.60;99.90;;;;;;5046859;28;20739;-41
2022/01/06 02:13:01;;;;;;;2.27;0.80;;;1.60;99.90;;;;;;5022081;28;20220;-41
2022/01/06 02:15:29;;;;;;;3.27;1.20;;;1.60;99.90;;;;;;5056027;28;20664;-41
2022/01/06 02:17:57;;;;;;;2.77;1.17;;;1.60;99.90;;;;;;5037221;28;20204;-41
2022/01/06 02:20:26;;;;;;;1.90;0.80;;;1.70;99.90;;;;;;5044645;28;20238;-41
2022/01/06 02:22:54;;;;;;;7.90;1.13;;;1.70;99.90;;;;;;5050358;28;20744;-40
2022/01/06 02:25:23;;;;;;;6.53;1.50;;;1.70;99.90;;;;;;5054979;28;20213;-41
2022/01/06 02:27:52;;;;;;;4.83;0.80;;;1.50;99.90;;;;;;5041999;28;20241;-41
2022/01/06 02:30:20;;;;;;;4.57;1.10;;;1.50;99.90;;;;;;5038536;28;20556;-41
2022/01/06 02:32:47;;;;;;;2.20;0.90;;;1.60;99.90;;;;;;5036549;28;20694;-41
2022/01/06 02:35:15;;;;;;;3.20;1.00;;;1.60;99.90;;;;;;5053148;28;20189;-41
2022/01/06 02:37:44;;;;;;;1.90;0.83;;;1.60;99.90;;;;;;5050050;28;20943;-41
2022/01/06 02:40:13;;;;;;;5.00;1.00;;;1.60;99.90;;;;;;5055516;28;21159;-41
2022/01/06 02:42:42;;;;;;;3.17;0.73;;;1.60;99.90;;;;;;5041298;28;20209;-41
2022/01/06 02:45:09;;;;;;;1.10;0.50;;;1.60;99.90;;;;;;5043418;28;20197;-41
2022/01/06 02:47:36;;;;;;;1.53;0.73;;;1.60;99.90;;;;;;5058103;28;20220;-41
2022/01/06 02:50:05;;;;;;;3.83;0.87;;;1.50;99.90;;;;;;5039818;28;20203;-40
2022/01/06 02:52:32;;;;;;;5.83;0.77;;;1.50;99.90;;;;;;5048844;28;20217;-41
2022/01/06 02:55:00;;;;;;;4.47;0.77;;;1.50;99.90;;;;;;5043101;28;20211;-41
2022/01/06 02:57:27;;;;;;;5.97;1.10;;;1.50;99.90;;;;;;5045234;28;20236;-40
2022/01/06 02:59:54;;;;;;;5.00;1.20;;;1.50;99.90;;;;;;5044450;28;20232;-41
2022/01/06 03:02:21;;;;;;;4.73;1.07;;;1.50;99.90;;;;;;5044452;28;20201;-41
2022/01/06 03:04:48;;;;;;;5.03;0.93;;;1.50;99.90;;;;;;5049698;28;20220;-41
2022/01/06 03:07:15;;;;;;;3.10;1.00;;;1.50;99.90;;;;;;5046600;28;21299;-41
2022/01/06 03:09:43;;;;;;;5.27;1.00;;;1.50;99.90;;;;;;5054144;28;20212;-41
2022/01/06 03:12:21;;;;;;;3.63;0.90;;;1.50;99.90;;;;;;5051144;28;20201;-41
2022/01/06 03:14:48;;;;;;;1.60;0.67;;;1.40;99.90;;;;;;5032732;28;20627;-41
2022/01/06 03:17:14;;;;;;;5.00;1.37;;;1.40;99.90;;;;;;5042559;28;20237;-41
2022/01/06 03:19:42;;;;;;;4.77;1.93;;;1.40;99.90;;;;;;5060263;28;20222;-41
2022/01/06 03:22:08;;;;;;;7.00;1.10;;;1.50;99.90;;;;;;5049419;28;20209;-41
2022/01/06 03:24:35;;;;;;;1.47;0.70;;;1.40;99.90;;;;;;5050359;28;20223;-41
2022/01/06 03:27:02;;;;;;;3.50;0.90;;;1.50;99.90;;;;;;5054103;28;20217;-41
2022/01/06 03:29:30;;;;;;;2.97;0.80;;;1.40;99.90;;;;;;5035944;28;20219;-40
2022/01/06 03:31:58;;;;;;;4.00;1.07;;;1.40;99.90;;;;;;5037760;28;20221;-41
2022/01/06 03:34:26;;;;;;;3.73;1.07;;;1.40;99.90;;;;;;5051195;28;20211;-40
2022/01/06 03:36:53;;;;;;;6.37;0.80;;;1.40;99.90;;;;;;5047565;28;20801;-40
2022/01/06 03:39:20;;;;;;;6.60;1.23;;;1.50;99.90;;;;;;5059211;28;20218;-40
2022/01/06 03:41:48;;;;;;;4.90;0.93;;;1.60;99.90;;;;;;5047376;28;20935;-40
2022/01/06 03:44:14;;;;;;;2.43;1.00;;;1.60;99.90;;;;;;5056826;28;20261;-40
2022/01/06 03:46:43;;;;;;;3.83;1.13;;;1.60;99.90;;;;;;5016014;28;20225;-41
2022/01/06 03:49:09;;;;;;;3.83;1.17;;;1.70;99.90;;;;;;5052799;28;20200;-40
2022/01/06 03:51:36;;;;;;;4.63;0.97;;;1.70;99.90;;;;;;5037881;28;20220;-40
2022/01/06 03:54:03;;;;;;;5.20;1.07;;;1.80;99.90;;;;;;5058671;28;20201;-41
2022/01/06 03:56:30;;;;;;;2.10;0.87;;;1.80;99.90;;;;;;5054875;28;20228;-41
2022/01/06 03:58:58;;;;;;;8.63;1.10;;;1.80;99.90;;;;;;5063657;28;20230;-41
2022/01/06 04:01:25;;;;;;;3.70;0.83;;;1.90;99.90;;;;;;5030950;28;20921;-40
2022/01/06 04:03:53;;;;;;;6.47;1.23;;;1.90;99.90;;;;;;5053488;28;20668;-41
2022/01/06 04:06:20;;;;;;;3.07;1.03;;;2.00;99.90;;;;;;5038673;28;20224;-41
2022/01/06 04:08:47;;;;;;;3.07;0.67;;;1.90;99.90;;;;;;5040219;28;20224;-40
2022/01/06 04:11:14;;;;;;;4.13;0.50;;;2.00;99.90;;;;;;5047382;28;20649;-41
2022/01/06 04:13:41;;;;;;;3.50;0.93;;;1.90;99.90;;;;;;5059061;28;20225;-40
2022/01/06 04:16:10;;;;;;;5.03;0.83;;;1.90;99.90;;;;;;5039654;28;20230;-41
2022/01/06 04:18:37;;;;;;;3.03;1.00;;;2.00;99.90;;;;;;5051328;28;20255;-41
2022/01/06 04:21:07;;;;;;;3.37;1.00;;;2.00;99.90;;;;;;5039788;28;20224;-41
2022/01/06 04:23:34;;;;;;;6.53;1.73;;;1.90;99.90;;;;;;5043319;28;20205;-42
2022/01/06 04:26:01;;;;;;;1.67;0.93;;;1.90;99.90;;;;;;5052577;28;20230;-41
2022/01/06 04:28:28;;;;;;;2.97;0.70;;;1.90;99.90;;;;;;5048350;28;20206;-41
2022/01/06 04:30:55;;;;;;;1.80;0.60;;;1.90;99.90;;;;;;5047491;28;20198;-41
2022/01/06 04:33:22;;;;;;;5.50;1.50;;;1.90;99.90;;;;;;5022862;28;20214;-41
2022/01/06 04:35:49;;;;;;;3.53;0.57;;;1.90;99.90;;;;;;5045300;28;20240;-41
2022/01/06 04:38:17;;;;;;;3.60;0.53;;;1.90;99.90;;;;;;5042774;28;20220;-41
2022/01/06 04:40:44;;;;;;;4.53;0.60;;;1.90;99.90;;;;;;5052483;28;20212;-41
2022/01/06 04:43:11;;;;;;;2.97;0.50;;;1.90;99.90;;;;;;5057767;28;20203;-41
2022/01/06 04:45:38;;;;;;;3.33;0.70;;;1.90;99.90;;;;;;5055987;28;20225;-41
2022/01/06 04:48:05;;;;;;;3.30;0.80;;;2.00;99.90;;;;;;5044174;28;20212;-41
2022/01/06 04:50:32;;;;;;;7.47;0.93;;;1.90;99.90;;;;;;5044870;28;20211;-41
2022/01/06 04:52:59;;;;;;;6.83;1.00;;;1.90;99.90;;;;;;5046226;28;20203;-41
2022/01/06 04:55:27;;;;;;;5.30;0.90;;;1.90;99.90;;;;;;5050999;28;20230;-41
2022/01/06 04:57:54;;;;;;;4.20;0.67;;;1.90;99.90;;;;;;5052918;28;20808;-41
2022/01/06 05:00:21;;;;;;;3.23;0.57;;;1.90;99.90;;;;;;5041780;28;20230;-41
2022/01/06 05:02:47;;;;;;;8.23;0.87;;;1.90;99.90;;;;;;5037300;28;20224;-41
2022/01/06 05:05:14;;;;;;;5.83;0.80;;;1.90;99.90;;;;;;5054636;28;20206;-41
2022/01/06 05:07:41;;;;;;;7.43;0.97;;;1.90;99.90;;;;;;5029068;28;20231;-41
2022/01/06 05:10:09;;;;;;;6.83;0.90;;;1.90;99.90;;;;;;5042986;28;20585;-41
2022/01/06 05:12:41;;;;;;;2.50;0.80;;;1.80;99.90;;;;;;5045538;28;20215;-41
2022/01/06 05:15:08;;;;;;;1.10;0.70;;;1.70;99.90;;;;;;5042966;28;20220;-41
2022/01/06 05:17:35;;;;;;;5.37;1.13;;;1.70;99.90;;;;;;5052877;28;20221;-41
2022/01/06 05:20:02;;;;;;;2.63;0.80;;;1.60;99.90;;;;;;5033179;28;20233;-40
2022/01/06 05:22:30;;;;;;;5.20;0.90;;;1.60;99.90;;;;;;5034447;28;20220;-41
2022/01/06 05:24:57;;;;;;;1.37;0.77;;;1.70;99.90;;;;;;5038705;28;20325;-41
2022/01/06 05:27:24;;;;;;;6.30;1.23;;;1.70;99.90;;;;;;5051103;28;21178;-41
2022/01/06 05:29:53;;;;;;;3.40;1.30;;;1.80;99.90;;;;;;5049061;28;20209;-46
2022/01/06 05:32:20;;;;;;;4.50;1.00;;;1.70;99.90;;;;;;5028513;28;20617;-46
2022/01/06 05:34:47;;;;;;;2.27;1.03;;;1.70;99.90;;;;;;5018981;28;21309;-46
2022/01/06 05:37:14;;;;;;;0.83;0.70;;;1.70;99.90;;;;;;5054904;28;20225;-46
2022/01/06 05:39:41;;;;;;;3.60;0.83;;;1.70;99.90;;;;;;5021868;28;20230;-46
2022/01/06 05:42:08;;;;;;;2.77;0.90;;;1.70;99.90;;;;;;5050313;28;20296;-46
2022/01/06 05:44:35;;;;;;;4.93;1.00;;;1.70;99.90;;;;;;5047766;28;20215;-41
2022/01/06 05:47:04;;;;;;;5.40;0.90;;;1.70;99.90;;;;;;5049685;28;21039;-41
2022/01/06 05:49:31;;;;;;;7.00;0.90;;;1.70;99.90;;;;;;5046050;28;20203;-41
2022/01/06 05:51:58;;;;;;;6.27;0.90;;;1.70;99.90;;;;;;5037358;28;20231;-41
2022/01/06 05:54:25;;;;;;;6.17;1.07;;;1.70;99.90;;;;;;5027934;28;20576;-41
2022/01/06 05:56:51;;;;;;;5.83;1.43;;;1.80;99.90;;;;;;5050475;28;20222;-41
2022/01/06 05:59:18;;;;;;;5.60;0.90;;;1.90;99.90;;;;;;5048708;28;20205;-41
2022/01/06 06:01:46;;;;;;;2.67;0.87;;;1.90;99.90;;;;;;5048069;28;20193;-41
2022/01/06 06:04:15;;;;;;;7.13;1.50;;;2.00;99.90;;;;;;5052355;28;20729;-41
2022/01/06 06:06:41;;;;;;;4.63;1.10;;;2.00;99.90;;;;;;5021669;28;20242;-41
2022/01/06 06:09:08;;;;;;;4.03;1.10;;;1.90;99.90;;;;;;5039746;28;20591;-41
2022/01/06 06:11:35;;;;;;;1.80;0.97;;;2.00;99.90;;;;;;5027357;28;20214;-41
2022/01/06 06:14:02;;;;;;;6.20;1.17;;;2.00;99.90;;;;;;5043300;28;25070;-41
2022/01/06 06:16:29;;;;;;;4.10;1.07;;;2.00;99.90;;;;;;5052104;28;20837;-41
2022/01/06 06:18:56;;;;;;;5.40;1.30;;;1.90;99.90;;;;;;5038421;28;20211;-41
2022/01/06 06:21:24;;;;;;;3.83;1.20;;;1.80;99.90;;;;;;5031942;28;20260;-41
2022/01/06 06:23:51;;;;;;;2.70;0.63;;;1.90;99.90;;;;;;5038356;28;20210;-41
2022/01/06 06:26:17;;;;;;;4.00;0.70;;;1.80;99.90;;;;;;5029738;28;20232;-41
2022/01/06 06:28:44;;;;;;;3.77;1.20;;;1.80;99.90;;;;;;5054264;28;20205;-41
2022/01/06 06:31:11;;;;;;;3.00;0.83;;;1.70;99.90;;;;;;5044261;28;20197;-41
2022/01/06 06:33:38;;;;;;;1.43;1.07;;;1.70;99.90;;;;;;5042021;28;20556;-41
2022/01/06 06:36:06;;;;;;;2.43;1.13;;;1.70;99.90;;;;;;5033645;28;20241;-41
2022/01/06 06:38:34;;;;;;;4.87;1.30;;;1.70;99.90;;;;;;5050985;28;20224;-41
2022/01/06 06:41:01;;;;;;;6.10;1.20;;;1.70;99.90;;;;;;5025166;28;20239;-41
2022/01/06 06:43:28;;;;;;;6.63;1.13;;;1.60;99.90;;;;;;5058254;28;20202;-40
2022/01/06 06:45:55;;;;;;;2.93;1.53;;;1.70;99.90;;;;;;5035201;28;20223;-41
2022/01/06 06:48:22;;;;;;;5.80;1.13;;;1.70;99.90;;;;;;5046287;28;20652;-41
2022/01/06 06:50:49;;;;;;;2.27;1.30;;;1.70;99.90;;;;;;5031479;28;26292;-41
2022/01/06 06:53:16;;;;;;;5.83;2.20;;;1.60;99.90;;;;;;5054047;28;20233;-40
2022/01/06 06:55:44;;;;;;;4.47;1.07;;;1.60;99.90;;;;;;5028756;28;20206;-40
2022/01/06 06:58:11;;;;;;;1.83;1.00;;;1.60;99.90;;;;;;5055683;28;20217;-41
2022/01/06 07:00:38;;;;;;;6.67;1.27;;;1.60;99.90;;;;;;5037653;28;20225;-40
2022/01/06 07:03:05;;;;;;;7.33;1.63;;;1.60;99.90;;;;;;5055490;28;20209;-40
2022/01/06 07:05:32;;;;;;;5.07;1.13;;;1.60;99.90;;;;;;5059321;28;20229;-40
2022/01/06 07:07:58;;;;;;;3.63;1.13;;;1.60;99.90;;;;;;5037028;28;20202;-40
2022/01/06 07:10:25;;;;;;;6.50;1.47;;;1.60;99.90;;;;;;5056708;28;20226;-41
2022/01/06 07:12:54;;;;;;;5.43;1.20;;;1.60;99.90;;;;;;5037215;28;20217;-41
2022/01/06 07:15:21;;;;;;;6.60;1.33;;;1.60;99.90;;;;;;5056470;28;20217;-38
2022/01/06 07:17:48;;;;;;;4.40;1.17;;;1.60;99.90;;;;;;5048146;28;20333;-38
2022/01/06 07:20:15;;;;;;;3.17;1.43;;;1.50;99.90;;;;;;5063110;28;20216;-38
2022/01/06 07:22:42;;;;;;;4.37;1.40;;;1.50;99.90;;;;;;5041582;28;20216;-38
2022/01/06 07:25:09;;;;;;;4.40;1.47;;;1.50;99.90;;;;;;5043840;28;20203;-38
2022/01/06 07:27:36;;;;;;;5.90;1.33;;;1.50;99.90;;;;;;5049024;28;20733;-37
2022/01/06 07:30:05;;;;;;;3.33;1.03;;;1.50;99.90;;;;;;5040505;28;20214;-38
2022/01/06 07:32:32;;;;;;;4.17;1.47;;;1.50;99.90;;;;;;5050257;28;20750;-38
2022/01/06 07:34:59;;;;;;;4.20;0.93;;;1.50;99.90;;;;;;5046852;28;20210;-38
2022/01/06 07:37:25;;;;;;;5.23;1.70;;;1.40;99.90;;;;;;5042266;28;25692;-38
2022/01/06 07:39:53;;;;;;;7.90;1.80;;;1.50;99.90;;;;;;5059383;28;20201;-38
2022/01/06 07:42:20;;;;;;;1.77;1.10;;;1.50;99.90;;;;;;5041530;28;20211;-38
2022/01/06 07:44:49;;;;;;;7.23;1.63;;;1.40;99.90;;;;;;5038630;28;20206;-38
2022/01/06 07:47:18;;;;;;;11.90;1.60;;;1.50;99.90;;;;;;5054942;28;20230;-38
2022/01/06 07:49:45;;;;;;;5.47;1.67;;;1.50;99.90;;;;;;5056966;28;20221;-38
2022/01/06 07:52:12;;;;;;;5.57;1.53;;;1.50;99.90;;;;;;5058126;28;20211;-38
2022/01/06 07:54:39;;;;;;;7.77;1.50;;;1.50;99.90;;;;;;5035609;28;21055;-41
2022/01/06 07:57:06;;;;;;;3.87;1.40;;;1.60;99.90;;;;;;5056674;28;20222;-41
2022/01/06 07:59:33;;;;;;;8.00;1.50;;;1.60;99.90;;;;;;5041319;28;20214;-41
2022/01/06 08:02:00;;;;;;;6.13;1.57;;;1.70;99.90;;;;;;5053461;28;20220;-40
2022/01/06 08:04:28;;;;;;;13.93;1.50;;;2.00;99.90;;;;;;5038060;28;20630;-45
2022/01/06 08:06:55;;;;;;;4.63;1.93;;;2.00;99.90;;;;;;5058230;28;20392;-45
2022/01/06 08:09:22;;;;;;;6.23;1.27;;;1.90;99.90;;;;;;5039911;28;20232;-40
2022/01/06 08:11:49;;;;;;;5.27;1.50;;;1.80;99.90;;;;;;5050194;28;20745;-40
2022/01/06 08:14:15;;;;;;;6.93;1.60;;;1.70;99.90;;;;;;5031126;28;20213;-41
2022/01/06 08:16:42;;;;;;;5.13;1.70;;;1.70;99.90;;;;;;5046847;28;20233;-41
2022/01/06 08:19:09;;;;;;;15.07;2.00;;;1.60;99.90;;;;;;5051853;28;20209;-41
2022/01/06 08:21:38;;;;;;;8.80;2.07;;;1.60;99.90;;;;;;5041816;28;20935;-41
2022/01/06 08:24:06;;;;;;;6.53;1.90;;;1.50;99.90;;;;;;5051421;28;20349;-41
2022/01/06 08:26:32;;;;;;;11.10;1.80;;;1.50;99.90;;;;;;5023236;28;20225;-41
2022/01/06 08:28:59;;;;;;;9.23;1.90;;;1.40;99.90;;;;;;5042175;28;20222;-41
2022/01/06 08:31:26;;;;;;;10.83;1.97;;;1.40;99.90;;;;;;5039067;28;20679;-46
2022/01/06 08:33:53;;;;;;;6.73;1.83;;;1.50;99.90;;;;;;5051444;28;20264;-46
2022/01/06 08:36:20;;;;;;;8.23;1.70;;;1.40;99.90;;;;;;5045786;28;20225;-45
2022/01/06 08:38:48;;;;;;;6.77;1.83;;;1.40;99.90;;;;;;5055568;28;21717;-41
2022/01/06 08:41:15;;;;;;;3.83;1.47;;;1.50;99.90;;;;;;5027711;28;20226;-41
2022/01/06 08:43:42;;;;;;;2.63;1.60;;;1.50;99.90;;;;;;5040007;28;20325;-40
2022/01/06 08:46:09;;;;;;;4.87;1.57;;;1.50;99.90;;;;;;5043445;28;20236;-41
2022/01/06 08:48:36;;;;;;;5.63;1.60;;;1.50;99.90;;;;;;5041172;28;21121;-41
2022/01/06 08:51:03;;;;;;;5.93;2.13;;;1.60;99.90;;;;;;5028733;28;20207;-44
2022/01/06 08:53:29;;;;;;;7.27;2.03;;;1.50;99.90;;;;;;5054611;28;20200;-40
2022/01/06 08:55:58;;;;;;;7.90;1.60;;;1.70;99.90;;;;;;5034813;28;20220;-40
2022/01/06 08:58:24;;;;;;;5.30;1.83;;;1.60;99.90;;;;;;5046935;28;20206;-40
2022/01/06 09:00:51;;;;;;;7.27;1.97;;;1.60;99.90;;;;;;5039603;28;20830;-42
2022/01/06 09:03:18;;;;;;;11.20;1.90;;;1.70;99.90;;;;;;5035427;28;20202;-41
2022/01/06 09:05:45;;;;;;;17.13;2.17;;;1.70;99.90;;;;;;5029391;28;20210;-41
2022/01/06 09:08:12;;;;;;;8.93;2.80;;;1.70;99.90;;;;;;5051550;28;20673;-40
2022/01/06 09:10:39;;;;;;;9.70;2.40;;;1.70;99.90;;;;;;5034061;28;20434;-41
2022/01/06 09:13:07;;;;;;;7.10;1.63;;;1.70;99.90;;;;;;5044155;28;20516;-40
2022/01/06 09:15:34;;;;;;;9.53;2.20;;;1.80;99.90;;;;;;5050074;28;20221;-40
2022/01/06 09:18:01;;;;;;;10.60;2.00;;;1.80;99.90;;;;;;5030987;28;20212;-40
2022/01/06 09:20:29;;;;;;;6.93;2.37;;;1.90;99.90;;;;;;5043797;28;20713;-40
2022/01/06 09:22:56;;;;;;;12.50;3.20;;;1.90;99.90;;;;;;5055787;28;20222;-40
2022/01/06 09:25:23;;;;;;;12.80;5.40;;;1.90;99.90;;;;;;5051956;28;20211;-38
2022/01/06 09:27:49;;;;;;;8.00;3.77;;;1.90;99.90;;;;;;5038491;28;20860;-38
2022/01/06 09:30:19;;;;;;;10.17;3.40;;;1.90;99.90;;;;;;5053183;28;20215;-38
2022/01/06 09:32:46;;;;;;;12.07;2.87;;;2.00;99.90;;;;;;5032357;28;20951;-38
2022/01/06 09:35:13;;;;;;;7.47;2.53;;;2.00;99.90;;;;;;5049883;28;20223;-38
2022/01/06 09:37:40;;;;;;;12.73;2.67;;;2.10;99.90;;;;;;5028458;28;20624;-38
2022/01/06 09:40:09;;;;;;;5.97;2.17;;;2.10;99.90;;;;;;5051997;28;21570;-38
2022/01/06 09:42:37;;;;;;;4.30;1.73;;;2.10;99.90;;;;;;5032323;28;20920;-38
2022/01/06 09:45:04;;;;;;;12.77;2.03;;;2.10;99.90;;;;;;5055837;28;20212;-38
2022/01/06 09:47:33;;;;;;;11.27;2.10;;;2.10;99.90;;;;;;5042636;28;20498;-38
2022/01/06 09:50:00;;;;;;;9.77;2.00;;;2.10;99.90;;;;;;5040774;28;20216;-38
2022/01/06 09:52:27;;;;;;;8.07;2.30;;;2.20;99.90;;;;;;5038699;28;20202;-38
2022/01/06 09:54:53;;;;;;;7.00;2.10;;;2.20;99.90;;;;;;5050092;28;20204;-38
2022/01/06 09:57:20;;;;;;;9.33;2.43;;;2.30;99.90;;;;;;5038738;28;20235;-38
2022/01/06 09:59:48;;;;;;;12.67;2.30;;;2.30;99.90;;;;;;5032782;28;20224;-38
2022/01/06 10:02:17;;;;;;;9.83;2.00;;;2.40;99.90;;;;;;5044133;28;20223;-38
2022/01/06 10:04:47;;;;;;;8.27;1.73;;;2.40;99.90;;;;;;5033274;28;20736;-37
2022/01/06 10:07:16;;;;;;;9.27;2.20;;;2.40;99.90;;;;;;5050792;28;21576;-37
2022/01/06 10:09:43;;;;;;;10.57;2.30;;;2.50;99.90;;;;;;5027588;28;20220;-37
2022/01/06 10:12:13;;;;;;;14.60;2.23;;;2.40;99.90;;;;;;5050224;28;20218;-38
2022/01/06 10:14:43;;;;;;;8.23;1.47;;;2.50;99.90;;;;;;5035710;28;20216;-37
2022/01/06 10:17:14;;;;;;;6.67;2.00;;;2.50;99.90;;;;;;5048545;28;20320;-45
2022/01/06 10:19:43;;;;;;;7.90;2.13;;;2.60;99.90;;;;;;5028515;28;20223;-37
2022/01/06 10:22:17;;;;;;;9.67;1.93;;;2.60;99.90;;;;;;5012519;28;20219;-41
2022/01/06 10:24:45;;;;;;;7.90;2.83;;;2.70;99.90;;;;;;5039876;28;20221;-40
2022/01/06 10:27:14;;;;;;;8.60;1.90;;;2.70;99.90;;;;;;5041433;28;20219;-38
2022/01/06 10:29:43;;;;;;;8.47;2.17;;;2.70;99.90;;;;;;5013786;28;20216;-37
2022/01/06 10:32:12;;;;;;;14.87;2.10;;;2.80;99.90;;;;;;5028021;28;20200;-38
2022/01/06 10:34:41;;;;;;;6.20;2.43;;;2.80;99.90;;;;;;5017905;28;20215;-37
2022/01/06 10:37:20;;;;;;;4.50;2.00;;;2.80;99.90;;;;;;5044053;28;20240;-37
2022/01/06 10:39:48;;;;;;;8.20;2.40;;;2.80;99.90;;;;;;5031108;28;20701;-40
2022/01/06 10:42:15;;;;;;;6.93;2.10;;;2.80;99.90;;;;;;5036638;28;20221;-37
2022/01/06 10:44:47;;;;;;;6.47;2.10;;;2.90;99.90;;;;;;5024077;28;20893;-38
2022/01/06 10:47:14;;;;;;;12.03;2.40;;;2.90;99.90;;;;;;5051199;28;22328;-37
2022/01/06 10:49:41;;;;;;;6.47;2.03;;;3.00;99.90;;;;;;5031178;28;20207;-41
2022/01/06 10:52:08;;;;;;;9.30;4.00;;;3.00;99.90;;;;;;5037725;28;22086;-38
2022/01/06 10:54:38;;;;;;;6.97;2.20;;;3.00;99.90;;;;;;5036884;28;20230;-37
2022/01/06 10:57:08;;;;;;;10.27;2.10;;;3.00;99.90;;;;;;5041840;28;20227;-37
2022/01/06 10:59:37;;;;;;;13.87;2.20;;;3.10;99.90;;;;;;5036522;28;20580;-37
2022/01/06 11:02:05;;;;;;;12.00;2.57;;;3.10;99.90;;;;;;5022509;28;20593;-40
2022/01/06 11:04:33;;;;;;;8.53;2.00;;;3.10;99.90;;;;;;5035822;28;20334;-42
2022/01/06 11:07:00;;;;;;;4.93;1.90;;;3.10;99.90;;;;;;5023916;28;20730;-42
2022/01/06 11:09:29;;;;;;;14.17;2.47;;;3.10;99.90;;;;;;5054723;28;20412;-42
2022/01/06 11:14:46;;;;;;;11.50;2.23;;;3.20;99.90;;;;;;5036380;28;20244;-41
2022/01/06 11:17:13;;;;;;;12.30;4.03;;;3.20;99.90;;;;;;5031387;28;20229;-43
2022/01/06 11:19:40;;;;;;;13.83;2.87;;;3.30;99.90;;;;;;5050728;28;20233;-41
2022/01/06 11:22:09;;;;;;;5.97;2.37;;;3.40;99.90;;;;;;5028693;28;20235;-42
2022/01/06 11:24:38;;;;;;;8.93;2.30;;;3.40;99.90;;;;;;5050475;28;20211;-41
2022/01/06 11:27:10;;;;;;;8.53;2.13;;;3.40;99.90;;;;;;5053987;28;20224;-42
2022/01/06 11:29:40;;;;;;;6.23;2.17;;;3.40;99.90;;;;;;5030604;28;20333;-41
2022/01/06 11:32:19;;;;;;;9.80;2.17;;;3.50;99.90;;;;;;5023069;28;20228;-41
2022/01/06 11:34:46;;;;;;;10.23;1.90;;;3.50;99.90;;;;;;5038259;28;21021;-41
2022/01/06 11:37:15;;;;;;;10.97;2.23;;;3.50;99.90;;;;;;5023498;28;20229;-41
2022/01/06 11:39:43;;;;;;;12.47;3.07;;;3.60;99.90;;;;;;5041782;28;20216;-41
2022/01/06 11:42:17;;;;;;;9.77;2.17;;;3.60;99.90;;;;;;5057033;28;20223;-41
2022/01/06 11:44:52;;;;;;;10.80;2.53;;;3.60;99.90;;;;;;5019293;28;20259;-41
2022/01/06 11:47:30;;;;;;;8.80;2.47;;;3.70;99.90;;;;;;5027325;28;20235;-41
2022/01/06 11:50:09;;;;;;;10.60;2.57;;;3.70;99.90;;;;;;5043180;28;20689;-41
2022/01/06 11:52:37;;;;;;;10.37;2.00;;;3.70;99.90;;;;;;5035131;28;20208;-41
2022/01/06 11:55:13;;;;;;;13.60;2.40;;;3.70;99.90;;;;;;5049290;28;20836;-41
2022/01/06 11:57:42;;;;;;;11.07;1.93;;;3.70;99.90;;;;;;5041237;28;20238;-41
2022/01/06 12:00:18;;;;;;;6.23;2.17;;;3.80;99.90;;;;;;5041725;28;20613;-41
2022/01/06 12:02:56;;;;;;;7.00;2.33;;;3.90;99.90;;;;;;5024465;28;20219;-41
2022/01/06 12:05:23;;;;;;;10.53;2.40;;;3.90;99.90;;;;;;5044168;28;20799;-41
2022/01/06 12:07:51;;;;;;;10.47;2.37;;;4.00;99.90;;;;;;5038503;28;20313;-42
2022/01/06 12:10:20;;;;;;;6.70;1.67;;;4.00;99.90;;;;;;5040988;28;20633;-41
2022/01/06 12:12:50;;;;;;;10.37;1.80;;;4.00;99.90;;;;;;5047783;28;20206;-39
2022/01/06 12:15:20;;;;;;;13.23;2.20;;;4.10;99.90;;;;;;5034445;28;20208;-41
2022/01/06 12:17:49;;;;;;;10.80;2.10;;;4.10;99.90;;;;;;5012059;28;20234;-41
2022/01/06 12:20:20;;;;;;;11.20;2.23;;;4.10;99.90;;;;;;5045340;28;20294;-41
2022/01/06 12:22:47;;;;;;;8.37;1.90;;;4.10;99.90;;;;;;5048397;28;20354;-40
2022/01/06 12:25:14;;;;;;;14.17;2.23;;;4.20;99.90;;;;;;5033142;28;20349;-41
2022/01/06 12:27:48;;;;;;;7.73;1.90;;;4.20;99.90;;;;;;5049584;28;20227;-41
2022/01/06 12:30:18;;;;;;;12.33;2.30;;;4.20;99.90;;;;;;5038653;28;20203;-42
2022/01/06 12:32:56;;;;;;;10.23;2.20;;;4.30;99.90;;;;;;5029084;28;20196;-47
2022/01/06 12:35:42;;;;;;;12.10;2.70;;;4.40;99.90;;;;;;5033284;28;22646;-42
2022/01/06 12:38:10;;;;;;;10.60;2.43;;;4.50;99.90;;;;;;5032285;28;20220;-42
2022/01/06 12:40:38;;;;;;;11.23;2.80;;;4.50;99.90;;;;;;5034164;28;20209;-39
2022/01/06 12:43:19;;;;;;;8.60;2.30;;;4.60;99.90;;;;;;5054877;28;20235;-47
2022/01/06 12:46:00;;;;;;;15.43;2.60;;;4.60;99.90;;;;;;5042799;28;20208;-39
2022/01/06 12:48:31;;;;;;;13.67;2.63;;;4.70;99.90;;;;;;5031017;28;20725;-42
2022/01/06 12:50:58;;;;;;;12.60;1.90;;;4.70;99.90;;;;;;5030396;28;20657;-42
2022/01/06 12:53:27;;;;;;;7.20;1.97;;;4.70;99.90;;;;;;5018934;28;21958;-42
2022/01/06 12:55:53;;;;;;;13.33;2.17;;;4.70;99.90;;;;;;5029078;28;20646;-42
2022/01/06 12:58:29;;;;;;;6.57;2.33;;;4.70;99.90;;;;;;5040117;28;20207;-42
2022/01/06 13:00:59;;;;;;;14.27;2.10;;;4.70;99.90;;;;;;5043023;28;20219;-41
2022/01/06 13:03:28;;;;;;;11.83;2.23;;;4.70;99.90;;;;;;5009595;28;20220;-42
2022/01/06 13:05:55;;;;;;;14.37;2.43;;;4.70;99.90;;;;;;5036887;28;20240;-42